Time;durP1;ratioP1;P1;durP2;ratioP2;P2;SDS_P1;SDS_P2;PMS_P1;PMS_P2;Temp;Humidity;BMP_temperature;BMP_pressure;BME280_temperature;BME280_humidity;BME280_pressure;Samples;Min_cycle;Max_cycle;Signal;HPM_P1;HPM_P2
2022/12/18 00:01:50;;;;;;;126.88;39.38;;;;;;;-8.10;100.00;101614.69;21090632;28;20055;-74
2022/12/18 00:11:51;;;;;;;124.65;40.20;;;;;;;-8.15;100.00;101623.59;21163660;28;20058;-74
2022/12/18 00:21:53;;;;;;;112.20;37.58;;;;;;;-8.15;100.00;101620.16;21161913;28;20060;-75
2022/12/18 00:31:54;;;;;;;115.32;38.08;;;;;;;-8.26;100.00;101626.97;21144238;28;20543;-74
2022/12/18 00:52:16;;;;;;;120.63;38.25;;;;;;;-8.12;100.00;101636.56;21075297;28;20458;-74
2022/12/18 01:02:17;;;;;;;115.55;38.17;;;;;;;-8.13;100.00;101632.25;21073650;28;20055;-73
2022/12/18 01:12:19;;;;;;;101.43;35.05;;;;;;;-8.15;100.00;101636.31;21073879;28;20055;-74
2022/12/18 01:22:20;;;;;;;114.38;35.88;;;;;;;-8.10;100.00;101616.34;21072803;28;20056;-74
2022/12/18 01:32:21;;;;;;;107.03;35.85;;;;;;;-8.02;100.00;101611.09;21090701;28;20540;-74
2022/12/18 01:42:23;;;;;;;93.05;33.45;;;;;;;-7.99;100.00;101629.91;21155799;28;20109;-74
2022/12/18 01:52:24;;;;;;;92.38;33.22;;;;;;;-8.09;100.00;101620.69;21154319;28;20132;-74
2022/12/18 02:02:25;;;;;;;95.65;32.33;;;;;;;-8.03;100.00;101633.84;21134036;28;20405;-75
2022/12/18 02:12:27;;;;;;;94.40;32.15;;;;;;;-8.06;100.00;101634.47;21069280;28;20055;-75
2022/12/18 02:22:28;;;;;;;87.20;32.80;;;;;;;-7.92;100.00;101625.41;21020799;28;20106;-74
2022/12/18 02:32:29;;;;;;;95.60;34.53;;;;;;;-7.95;100.00;101648.06;20984477;28;20083;-74
2022/12/18 02:42:31;;;;;;;89.50;30.98;;;;;;;-7.91;100.00;101633.91;20984390;28;20052;-74
2022/12/18 02:52:32;;;;;;;87.13;32.10;;;;;;;-7.92;100.00;101645.72;20984295;28;20052;-76
2022/12/18 03:02:33;;;;;;;90.97;33.05;;;;;;;-7.94;100.00;101643.84;20984367;28;20060;-75
2022/12/18 03:12:35;;;;;;;94.57;32.05;;;;;;;-7.92;100.00;101647.38;20993088;28;20528;-75
2022/12/18 03:22:36;;;;;;;86.40;32.78;;;;;;;-7.98;100.00;101641.84;21031253;28;20048;-75
2022/12/18 03:32:38;;;;;;;82.38;30.17;;;;;;;-8.07;100.00;101634.38;21086799;28;20241;-74
2022/12/18 03:42:39;;;;;;;81.18;30.30;;;;;;;-8.09;100.00;101636.81;21164951;28;20058;-74
2022/12/18 03:52:40;;;;;;;90.82;31.05;;;;;;;-8.22;100.00;101636.59;21164760;28;20128;-75
2022/12/18 04:02:41;;;;;;;81.95;31.50;;;;;;;-8.23;100.00;101623.78;21139840;28;20504;-75
2022/12/18 04:12:43;;;;;;;84.32;30.60;;;;;;;-8.34;100.00;101628.88;21078351;28;20052;-74
2022/12/18 04:22:44;;;;;;;95.72;33.30;;;;;;;-8.43;100.00;101624.75;21026140;28;20193;-76
2022/12/18 04:32:46;;;;;;;83.07;31.83;;;;;;;-8.52;100.00;101624.94;21032984;28;20439;-75
2022/12/18 04:42:52;;;;;;;82.03;30.85;;;;;;;-8.57;100.00;101632.19;21076279;28;20566;-74
2022/12/18 04:52:53;;;;;;;82.72;30.20;;;;;;;-8.69;100.00;101641.34;21075016;28;20508;-74
2022/12/18 05:02:55;;;;;;;80.40;30.58;;;;;;;-8.88;100.00;101643.16;21074428;28;20419;-75
2022/12/18 05:12:59;;;;;;;83.25;28.52;;;;;;;-8.94;100.00;101642.66;21074725;28;20522;-75
2022/12/18 05:23:01;;;;;;;85.40;31.20;;;;;;;-9.13;100.00;101647.88;21019488;28;20056;-74
2022/12/18 05:33:03;;;;;;;86.68;31.10;;;;;;;-9.17;100.00;101644.19;20987733;28;20056;-74
2022/12/18 05:43:04;;;;;;;76.88;29.00;;;;;;;-9.20;100.00;101641.38;20987813;28;20110;-74
2022/12/18 05:53:05;;;;;;;92.45;30.40;;;;;;;-9.32;100.00;101637.84;20987587;28;20052;-75
2022/12/18 06:03:06;;;;;;;83.15;29.08;;;;;;;-9.34;100.00;101664.69;20986538;28;20056;-75
2022/12/18 06:13:08;;;;;;;97.32;30.67;;;;;;;-9.38;100.00;101668.66;20985136;28;20063;-74
2022/12/18 06:23:09;;;;;;;85.55;29.30;;;;;;;-9.56;100.00;101688.25;21037163;28;20619;-74
2022/12/18 06:33:11;;;;;;;71.53;26.05;;;;;;;-9.61;100.00;101698.78;21009226;28;20049;-75
2022/12/18 06:43:12;;;;;;;76.35;27.45;;;;;;;-9.65;100.00;101706.88;20982113;28;20053;-74
2022/12/18 06:53:13;;;;;;;88.70;30.33;;;;;;;-9.63;100.00;101710.41;20980259;28;20063;-75
2022/12/18 07:03:14;;;;;;;84.97;30.00;;;;;;;-9.38;100.00;101721.91;21005719;28;20397;-75
2022/12/18 07:13:16;;;;;;;83.35;28.83;;;;;;;-9.11;100.00;101728.38;21070102;28;20089;-75
2022/12/18 07:23:17;;;;;;;84.93;27.35;;;;;;;-8.83;100.00;101725.63;21063983;28;20060;-75
2022/12/18 07:33:18;;;;;;;90.88;32.45;;;;;;;-8.62;100.00;101724.88;20944861;28;1380127;-76
2022/12/18 07:43:20;;;;;;;107.50;37.25;;;;;;;-8.36;100.00;101738.78;20995105;28;20060;-76
2022/12/18 07:53:21;;;;;;;86.10;31.33;;;;;;;-8.43;100.00;101746.66;20995910;28;20501;-75
2022/12/18 08:03:22;;;;;;;80.18;30.10;;;;;;;-8.18;100.00;101759.69;21016191;28;20052;-76
2022/12/18 08:13:24;;;;;;;100.10;37.47;;;;;;;-8.08;100.00;101765.63;21026135;28;20493;-76
2022/12/18 08:23:25;;;;;;;103.32;36.58;;;;;;;-7.85;100.00;101774.22;21031801;28;20497;-76
2022/12/18 08:33:29;;;;;;;88.90;34.70;;;;;;;-7.62;100.00;101755.66;21022640;28;20428;-76
2022/12/18 08:53:50;;;;;;;93.53;36.13;;;;;;;-7.33;100.00;101722.31;21016507;28;20098;-77
2022/12/18 09:03:51;;;;;;;105.13;38.45;;;;;;;-7.03;100.00;101711.94;21066660;28;20074;-71
2022/12/18 09:13:53;;;;;;;112.65;40.78;;;;;;;-7.11;100.00;101717.22;21073058;28;20561;-72
2022/12/18 09:23:55;;;;;;;94.43;34.67;;;;;;;-7.02;100.00;101734.09;21013346;28;20060;-72
2022/12/18 09:33:56;;;;;;;100.35;38.72;;;;;;;-6.69;100.00;101764.53;20988060;28;20060;-74
2022/12/18 09:43:57;;;;;;;114.05;40.50;;;;;;;-6.62;100.00;101746.38;20987161;28;20055;-72
2022/12/18 09:53:59;;;;;;;99.72;36.03;;;;;;;-6.78;100.00;101767.28;20986237;28;20056;-73
2022/12/18 10:04:00;;;;;;;98.50;36.63;;;;;;;-6.43;100.00;101780.09;20985131;28;20048;-73
2022/12/18 10:14:01;;;;;;;99.70;37.08;;;;;;;-6.07;100.00;101781.94;20985693;28;20106;-73
2022/12/18 10:24:03;;;;;;;110.75;37.55;;;;;;;-5.90;100.00;101765.25;21044971;28;20055;-73
2022/12/18 10:34:04;;;;;;;106.18;36.83;;;;;;;-6.17;100.00;101766.75;21067101;28;20048;-71
2022/12/18 10:44:05;;;;;;;111.38;38.08;;;;;;;-6.02;100.00;101757.66;21066315;28;20188;-73
2022/12/18 10:54:06;;;;;;;109.82;39.20;;;;;;;-5.86;100.00;101751.06;21066445;28;20121;-73
2022/12/18 11:04:08;;;;;;;100.43;37.05;;;;;;;-5.81;100.00;101759.94;21042678;28;20554;-73
2022/12/18 11:14:10;;;;;;;99.28;35.72;;;;;;;-5.69;100.00;101764.25;21050690;28;20058;-73
2022/12/18 11:24:11;;;;;;;109.88;37.95;;;;;;;-5.30;100.00;101749.09;21050352;28;20101;-70
2022/12/18 11:34:13;;;;;;;101.20;34.78;;;;;;;-5.30;100.00;101731.22;21045012;22;20497;-71
2022/12/18 11:44:30;;;;;;;70.18;26.10;;;;;;;-5.34;100.00;101729.22;21005346;28;20059;-71
2022/12/18 11:54:32;;;;;;;78.22;28.42;;;;;;;-5.50;100.00;101717.06;20999582;28;20060;-70
2022/12/18 12:04:33;;;;;;;87.93;31.55;;;;;;;-5.39;100.00;101699.94;21009058;28;20113;-69
2022/12/18 12:14:34;;;;;;;81.32;30.23;;;;;;;-5.37;100.00;101698.38;21014029;28;20432;-70
2022/12/18 12:24:36;;;;;;;89.28;32.42;;;;;;;-5.25;100.00;101704.34;20999311;28;20118;-70
2022/12/18 12:34:37;;;;;;;88.60;33.70;;;;;;;-5.05;100.00;101703.13;20984264;28;20595;-69
2022/12/18 12:44:38;;;;;;;102.07;37.10;;;;;;;-5.17;100.00;101698.09;20991590;28;20503;-69
2022/12/18 12:54:40;;;;;;;98.18;34.83;;;;;;;-5.17;100.00;101678.56;20981016;28;20052;-69
2022/12/18 13:04:41;;;;;;;92.65;33.92;;;;;;;-5.23;100.00;101662.78;20979318;28;20377;-69
2022/12/18 13:14:42;;;;;;;97.53;35.10;;;;;;;-5.15;100.00;101645.44;20975398;28;20106;-69
2022/12/18 13:24:44;;;;;;;113.30;41.78;;;;;;;-5.00;100.00;101638.81;20975726;28;20083;-69
2022/12/18 13:34:45;;;;;;;102.32;39.15;;;;;;;-5.03;100.00;101636.06;20976603;28;20062;-69
2022/12/18 13:44:47;;;;;;;101.82;39.95;;;;;;;-4.98;100.00;101624.50;21039142;28;20059;-70
2022/12/18 13:54:48;;;;;;;92.22;35.42;;;;;;;-5.08;100.00;101622.09;21027195;28;20056;-69
2022/12/18 14:04:50;;;;;;;90.37;35.20;;;;;;;-5.09;100.00;101627.97;21035839;28;20047;-71
2022/12/18 14:14:52;;;;;;;90.50;32.70;;;;;;;-5.20;100.00;101608.53;21042004;28;20093;-71
2022/12/18 14:24:55;;;;;;;;;;;;;;;-5.25;100.00;101614.97;21009434;28;20083;-72
2022/12/18 14:34:56;;;;;;;91.00;31.58;;;;;;;-5.44;100.00;101605.19;20972422;28;19924;-71
2022/12/18 14:44:58;;;;;;;91.47;31.25;;;;;;;-5.50;100.00;101605.69;20981188;28;20075;-71
2022/12/18 14:55:14;;;;;;;103.70;36.80;;;;;;;-5.52;100.00;101594.47;20989970;28;20060;-70
2022/12/18 15:05:16;;;;;;;101.25;36.33;;;;;;;-5.62;100.00;101589.53;21033290;28;20051;-70
2022/12/18 15:15:17;;;;;;;102.53;37.35;;;;;;;-5.83;100.00;101591.50;21072773;28;20656;-70
2022/12/18 15:25:19;;;;;;;108.65;36.83;;;;;;;-5.91;100.00;101596.88;21096098;28;20036;-70
2022/12/18 15:35:20;;;;;;;106.38;38.03;;;;;;;-5.93;100.00;101598.44;21073794;28;20059;-70
2022/12/18 15:45:21;;;;;;;103.40;39.75;;;;;;;-5.89;100.00;101592.72;21016304;28;20040;-71
2022/12/18 16:05:44;;;;;;;99.00;36.75;;;;;;;-5.80;100.00;101584.03;21041763;28;20044;-70
2022/12/18 16:15:45;;;;;;;97.45;37.03;;;;;;;-5.76;100.00;101591.13;21052823;28;20125;-71
2022/12/18 16:25:46;;;;;;;104.00;37.22;;;;;;;-5.65;100.00;101574.03;21054487;28;20059;-71
2022/12/18 16:35:48;;;;;;;95.25;35.95;;;;;;;-5.59;100.00;101564.22;20994122;28;20497;-71
2022/12/18 16:45:49;;;;;;;104.88;41.38;;;;;;;-5.48;100.00;101563.28;20983901;28;20055;-72
2022/12/18 16:55:51;;;;;;;103.50;41.03;;;;;;;-5.52;100.00;101561.28;20988110;28;20067;-71
2022/12/18 17:05:53;;;;;;;87.40;38.08;;;;;;;-5.54;100.00;101556.88;21008663;28;20120;-71
2022/12/18 17:15:54;;;;;;;105.03;39.47;;;;;;;-5.51;100.00;101554.53;21000855;28;20053;-71
2022/12/18 17:25:55;;;;;;;106.55;41.40;;;;;;;-5.50;100.00;101549.53;21007992;28;20282;-72
2022/12/18 17:35:57;;;;;;;104.63;40.85;;;;;;;-5.49;100.00;101547.88;21102395;22;20044;-70
2022/12/18 17:45:58;;;;;;;105.75;39.83;;;;;;;-5.46;100.00;101550.59;21056721;28;20451;-71
2022/12/18 17:56:00;;;;;;;109.75;42.17;;;;;;;-5.37;100.00;101540.13;21055125;28;20071;-70
2022/12/18 18:06:01;;;;;;;107.38;41.05;;;;;;;-5.39;100.00;101536.59;21053501;28;20492;-69
2022/12/18 18:16:03;;;;;;;110.90;41.20;;;;;;;-5.52;100.00;101552.75;21051136;28;20441;-69
2022/12/18 18:26:04;;;;;;;109.28;41.92;;;;;;;-5.51;100.00;101551.97;21053156;28;20109;-69
2022/12/18 18:36:06;;;;;;;102.05;38.65;;;;;;;-5.44;100.00;101541.41;21048725;28;20052;-70
2022/12/18 18:46:07;;;;;;;100.82;38.70;;;;;;;-5.29;100.00;101513.47;21051151;28;20047;-69
2022/12/18 18:56:08;;;;;;;104.60;38.25;;;;;;;-5.29;100.00;101516.00;21052660;28;20051;-70
2022/12/18 19:06:30;;;;;;;98.43;39.72;;;;;;;-5.10;100.00;101488.34;21054083;28;20144;-69
2022/12/18 19:16:32;;;;;;;111.00;42.30;;;;;;;-5.06;100.00;101497.97;21060021;28;20514;-69
2022/12/18 19:26:34;;;;;;;106.05;41.08;;;;;;;-4.97;100.00;101484.91;21062596;28;20063;-70
2022/12/18 19:36:35;;;;;;;100.20;41.97;;;;;;;-4.85;100.00;101488.22;21065513;28;20044;-70
2022/12/18 19:46:36;;;;;;;116.25;44.00;;;;;;;-4.95;100.00;101475.66;21065185;28;20087;-70
2022/12/18 19:56:42;;;;;;;127.68;48.90;;;;;;;-4.88;100.00;101487.19;21064280;28;20117;-70
2022/12/18 20:06:43;;;;;;;133.93;52.90;;;;;;;-4.84;100.00;101476.34;21062187;28;20052;-70
2022/12/18 20:16:44;;;;;;;116.28;43.28;;;;;;;-4.94;100.00;101492.75;21062284;28;20145;-69
2022/12/18 20:26:46;;;;;;;138.77;51.70;;;;;;;-4.90;100.00;101470.06;21058504;28;20136;-69
2022/12/18 20:36:47;;;;;;;103.85;41.55;;;;;;;-4.76;100.00;101467.50;21056779;28;20523;-69
2022/12/18 20:46:49;;;;;;;106.57;42.40;;;;;;;-4.70;100.00;101463.63;21059541;28;20060;-70
2022/12/18 20:56:50;;;;;;;108.25;41.97;;;;;;;-4.65;100.00;101461.38;21058484;28;20637;-70
2022/12/18 21:06:52;;;;;;;103.13;42.67;;;;;;;-4.57;100.00;101444.84;21057365;28;20051;-70
2022/12/18 21:17:02;;;;;;;114.70;46.92;;;;;;;-4.43;100.00;101443.16;21057099;28;20533;-70
2022/12/18 21:27:03;;;;;;;112.50;44.33;;;;;;;-4.31;100.00;101448.09;21045054;28;20056;-70
2022/12/18 21:37:05;;;;;;;113.65;42.95;;;;;;;-4.28;100.00;101425.28;21020370;28;20052;-72
2022/12/18 21:47:06;;;;;;;116.93;47.60;;;;;;;-4.23;100.00;101452.03;21020796;28;20060;-70
2022/12/18 21:57:23;;;;;;;118.05;46.10;;;;;;;-4.23;100.00;101444.34;21017530;28;20459;-70
2022/12/18 22:07:25;;;;;;;96.57;39.30;;;;;;;-4.27;100.00;101455.19;21008073;28;20512;-70
2022/12/18 22:17:26;;;;;;;85.00;37.72;;;;;;;-4.19;100.00;101448.88;21018145;28;20408;-70
2022/12/18 22:27:28;;;;;;;90.78;37.03;;;;;;;-4.22;100.00;101476.78;21017790;28;20056;-70
2022/12/18 22:37:29;;;;;;;77.72;31.83;;;;;;;-4.27;100.00;101460.28;21015577;28;20056;-69
2022/12/18 22:47:30;;;;;;;95.65;35.42;;;;;;;-4.14;100.00;101460.25;21012257;28;20067;-69
2022/12/18 22:57:32;;;;;;;87.88;35.47;;;;;;;-4.07;100.00;101454.72;21013440;28;20078;-69
2022/12/18 23:07:34;;;;;;;91.97;37.03;;;;;;;-4.07;100.00;101459.84;21019949;28;20064;-69
2022/12/18 23:17:36;;;;;;;89.00;38.05;;;;;;;-3.96;100.00;101452.81;21025480;28;20052;-70
2022/12/18 23:27:37;;;;;;;86.70;35.70;;;;;;;-3.91;100.00;101444.59;21021739;28;20462;-69
2022/12/18 23:37:38;;;;;;;89.13;35.70;;;;;;;-3.86;100.00;101444.88;21157152;23;20051;-76
2022/12/18 23:47:59;;;;;;;89.32;36.00;;;;;;;-3.71;100.00;101425.28;21103641;28;20052;-74
2022/12/18 23:58:00;;;;;;;83.00;35.30;;;;;;;-3.69;100.00;101415.13;21119417;28;20056;-75
